CYFD weather

Brantford Municipal Airport
Brantford, Ontario, Canada

Public forecast

Using degrees Celsius for public forecast. Weather courtesy of forecast.io.

Closest aviation weather report (METAR) to Brantford Municipal Airport

Closest report is John C. Munro Hamilton International Airport, 18.0 nm (33.4 km) E. Retrieved 2019/11/17 23:00 UTC (57 minutes ago):

CYHM 172300Z 05008KT 15SM SCT250 M02/M05 A3003 RMK CI4 SLP184

Closest aviation forecast (TAF) to Brantford Municipal Airport

Closest forecast is John C. Munro Hamilton International Airport, 18.0 nm (33.4 km) E. Retrieved 2019/11/17 18:42 UTC (5 hours ago):

TAF TAF CYHM 171739Z 1718/1818 06008KT P6SM SKC FM180100 04006KT P6SM SKC FM180700 VRB03KT P6SM BKN150 FM181000 04005KT 5SM -SN -FZRA BKN015 OVC060 FM181300 04006KT 11/2SM -SN BKN015 OVC060 PROB30 1813/1816 3SM -FZRA BR FM181600 04006KT 3SM -SNRA OVC010 PROB30 1816/1818 1SM -SN OVC006 RMK NXT FCST BY 180000Z